createdAt,value
2022-10-05T05:16:43.164Z,100123.81
2022-10-05T05:19:21.058Z,100164.34
2022-10-05T05:22:00.219Z,100157.50
2022-10-05T05:24:41.341Z,100159.22
2022-10-05T05:27:30.527Z,100160.06
2022-10-05T05:30:23.215Z,100157.50
2022-10-05T05:33:17.953Z,100160.94
2022-10-05T05:35:59.610Z,100166.06
2022-10-05T05:38:32.952Z,100165.25
2022-10-05T05:41:04.034Z,100161.78
2022-10-05T05:43:56.083Z,100139.38
2022-10-05T05:47:01.912Z,100136.81
2022-10-05T05:49:34.753Z,100140.22
2022-10-05T05:52:06.296Z,100128.25
2022-10-05T05:54:45.885Z,100118.81
2022-10-05T05:57:48.843Z,100146.41
2022-10-05T06:00:23.672Z,100116.22
2022-10-05T06:03:22.645Z,100129.13
2022-10-05T06:05:58.304Z,100126.50
2022-10-05T06:09:08.429Z,100127.34
2022-10-05T06:11:53.787Z,100131.66
2022-10-05T06:14:47.963Z,100133.34
2022-10-05T06:17:37.985Z,100172.16
2022-10-05T06:20:25.689Z,100135.09
2022-10-05T06:22:52.906Z,100133.41
2022-10-05T06:25:43.670Z,100152.47
2022-10-05T06:28:16.258Z,100130.88
2022-10-05T06:31:09.379Z,100136.03
2022-10-05T06:33:54.741Z,100130.03
2022-10-05T06:36:41.152Z,100163.63
2022-10-05T06:39:18.154Z,100164.50
2022-10-05T06:41:57.193Z,100136.06
2022-10-05T06:44:53.754Z,100124.94
2022-10-05T06:48:05.211Z,100159.38
2022-10-05T06:51:07.117Z,100144.69
2022-10-05T06:54:19.683Z,100130.88
2022-10-05T06:56:47.117Z,100173.09
2022-10-05T06:59:50.217Z,100172.31
2022-10-05T07:02:35.860Z,100173.19
2022-10-05T07:05:28.850Z,100143.81
2022-10-05T07:08:01.359Z,100143.06
2022-10-05T07:10:32.276Z,100137.94
2022-10-05T07:13:06.893Z,100140.53
2022-10-05T07:15:40.260Z,100190.28
2022-10-05T07:18:40.805Z,100152.47
2022-10-05T07:21:35.942Z,100188.75
2022-10-05T07:24:27.389Z,100201.63
2022-10-05T07:27:21.431Z,100165.47
2022-10-05T07:30:07.575Z,100184.53
2022-10-05T07:33:01.393Z,100193.13
2022-10-05T07:36:02.678Z,100198.28
2022-10-05T07:38:55.028Z,100168.13
2022-10-05T07:41:25.220Z,100201.78
2022-10-05T07:44:19.788Z,100166.50
2022-10-05T07:47:27.467Z,100158.75
2022-10-05T07:49:58.993Z,100160.47
2022-10-05T07:52:34.675Z,100164.00
2022-10-05T07:55:22.346Z,100158.84
2022-10-05T07:58:31.916Z,100177.84
2022-10-05T08:01:19.328Z,100140.00
2022-10-05T08:03:56.654Z,100147.81
2022-10-05T08:06:27.346Z,100170.22
2022-10-05T08:09:21.913Z,100139.16
2022-10-05T08:11:53.616Z,100147.81
2022-10-05T09:07:10.998Z,100162.06
2022-10-05T09:09:43.877Z,100167.25
2022-10-05T09:12:44.099Z,100168.94
2022-10-05T09:15:31.445Z,100168.09
2022-10-05T09:18:37.723Z,100164.66
2022-10-05T09:21:15.915Z,100156.88
2022-10-05T12:19:28.738Z,100066.97
2022-10-05T12:22:06.897Z,100072.06
2022-10-05T12:24:37.201Z,100074.50
2022-10-05T12:27:17.177Z,100044.47
2022-10-05T12:30:18.596Z,100033.16
2022-10-05T12:44:52.955Z,100066.63
2022-10-05T12:47:32.959Z,100066.44
2022-10-05T13:39:28.589Z,100055.28
2022-10-05T13:42:02.079Z,100058.66
2022-10-05T13:52:49.463Z,100028.47
2022-10-05T13:55:35.222Z,100027.50
2022-10-05T13:58:13.038Z,100035.22
2022-10-05T14:00:47.245Z,100013.78
2022-10-05T14:03:39.579Z,100002.66
2022-10-05T14:06:30.913Z,100042.16
2022-10-05T14:09:00.937Z,100004.34
2022-10-05T14:11:35.058Z,99999.06
2022-10-05T14:14:25.565Z,100006.03
2022-10-05T15:24:58.357Z,99999.56
2022-10-05T15:34:33.061Z,100003.97
2022-10-05T15:51:27.962Z,100007.84
2022-10-05T15:54:46.306Z,100003.34
2022-10-05T15:57:45.464Z,99969.13
2022-10-05T16:00:21.051Z,99983.59
2022-10-05T16:03:09.700Z,99971.59
2022-10-05T16:06:09.727Z,99986.16
2022-10-05T16:08:58.643Z,99993.06
2022-10-05T16:12:10.289Z,100001.81
2022-10-05T16:15:00.217Z,100006.09
2022-10-05T16:17:41.692Z,99988.25
2022-10-05T16:20:24.212Z,100021.72
2022-10-05T16:23:06.625Z,100021.00
2022-10-05T16:25:40.801Z,100020.09
2022-10-05T16:33:02.830Z,99996.38
2022-10-05T16:56:45.782Z,100018.38
2022-10-05T16:59:25.662Z,100025.94
2022-10-05T17:11:27.050Z,100035.56
2022-10-05T17:14:16.680Z,100036.50
2022-10-05T17:26:54.992Z,100041.03
2022-10-05T17:29:30.694Z,100037.53
2022-10-05T17:32:10.143Z,100034.09
2022-10-05T17:34:58.455Z,100026.47
2022-10-05T17:37:29.150Z,100017.72
2022-10-05T17:39:56.754Z,100008.47
2022-10-05T17:42:29.874Z,100034.16
2022-10-05T17:45:17.464Z,100034.25
2022-10-05T17:48:14.720Z,100030.03
2022-10-05T17:51:07.224Z,100038.63
2022-10-05T17:53:56.826Z,100043.91
2022-10-05T17:56:26.894Z,100048.25
2022-10-05T17:59:04.683Z,100049.94
2022-10-05T18:04:45.561Z,100021.78
2022-10-05T18:15:26.024Z,100045.09
2022-10-05T18:33:34.781Z,100004.81
2022-10-05T18:36:27.591Z,100030.59
2022-10-05T18:39:04.530Z,100028.03
2022-10-05T18:41:46.868Z,100019.59
2022-10-05T18:50:13.079Z,100046.22
2022-10-05T18:53:22.639Z,100041.13
2022-10-05T18:55:59.190Z,100043.72
2022-10-05T18:58:30.914Z,100042.00
2022-10-05T19:03:56.145Z,100055.00
2022-10-05T19:07:02.845Z,100046.41
2022-10-05T19:12:45.055Z,100039.59
2022-10-05T19:15:19.401Z,100050.72
2022-10-05T19:24:16.349Z,100037.94
2022-10-05T19:30:25.466Z,100033.78
2022-10-05T19:33:17.807Z,100037.13
2022-10-05T19:36:23.753Z,100052.69
2022-10-05T19:39:13.972Z,100049.25
2022-10-05T19:47:41.533Z,100051.03
2022-10-05T23:33:56.506Z,100119.75
2022-10-05T23:36:39.789Z,100121.50
2022-10-05T23:42:07.949Z,100089.69
2022-10-05T23:44:42.995Z,100112.94
2022-10-05T23:47:12.948Z,100112.94
2022-10-05T23:49:41.541Z,100131.00
2022-10-05T23:52:12.859Z,100106.06
2022-10-05T23:54:44.684Z,100106.09
2022-10-05T23:57:21.774Z,100130.16
